sensor_id;sensor_type;location;lat;lon;timestamp;P1;durP1;ratioP1;P2;durP2;ratioP2
39888;SDS011;25563;50.844;4.308;2023-11-21T00:00:26;76.60;;;34.05;;
39888;SDS011;25563;50.844;4.308;2023-11-21T00:02:52;70.80;;;33.60;;
39888;SDS011;25563;50.844;4.308;2023-11-21T00:05:18;72.57;;;31.80;;
39888;SDS011;25563;50.844;4.308;2023-11-21T00:07:44;77.43;;;34.58;;
39888;SDS011;25563;50.844;4.308;2023-11-21T00:10:10;74.20;;;33.88;;
39888;SDS011;25563;50.844;4.308;2023-11-21T00:12:40;80.72;;;34.28;;
39888;SDS011;25563;50.844;4.308;2023-11-21T00:15:08;72.07;;;34.85;;
39888;SDS011;25563;50.844;4.308;2023-11-21T00:17:36;76.47;;;34.03;;
39888;SDS011;25563;50.844;4.308;2023-11-21T00:20:02;78.85;;;33.60;;
39888;SDS011;25563;50.844;4.308;2023-11-21T00:22:31;79.40;;;35.50;;
39888;SDS011;25563;50.844;4.308;2023-11-21T00:24:58;73.25;;;32.30;;
39888;SDS011;25563;50.844;4.308;2023-11-21T00:27:24;75.60;;;32.28;;
39888;SDS011;25563;50.844;4.308;2023-11-21T00:29:49;68.00;;;33.45;;
39888;SDS011;25563;50.844;4.308;2023-11-21T00:32:15;77.35;;;32.88;;
39888;SDS011;25563;50.844;4.308;2023-11-21T00:34:41;75.13;;;35.58;;
39888;SDS011;25563;50.844;4.308;2023-11-21T00:37:07;70.82;;;32.22;;
39888;SDS011;25563;50.844;4.308;2023-11-21T00:39:33;72.85;;;32.95;;
39888;SDS011;25563;50.844;4.308;2023-11-21T00:42:00;78.03;;;32.15;;
39888;SDS011;25563;50.844;4.308;2023-11-21T00:44:26;82.32;;;32.95;;
39888;SDS011;25563;50.844;4.308;2023-11-21T00:46:51;77.97;;;33.63;;
39888;SDS011;25563;50.844;4.308;2023-11-21T00:49:17;80.68;;;33.60;;
39888;SDS011;25563;50.844;4.308;2023-11-21T00:51:43;76.45;;;34.08;;
39888;SDS011;25563;50.844;4.308;2023-11-21T00:54:09;77.40;;;33.90;;
39888;SDS011;25563;50.844;4.308;2023-11-21T00:56:35;75.65;;;33.85;;
39888;SDS011;25563;50.844;4.308;2023-11-21T00:59:01;71.25;;;31.83;;
39888;SDS011;25563;50.844;4.308;2023-11-21T01:01:27;83.32;;;33.50;;
39888;SDS011;25563;50.844;4.308;2023-11-21T01:03:53;70.10;;;31.55;;
39888;SDS011;25563;50.844;4.308;2023-11-21T01:06:19;75.22;;;33.20;;
39888;SDS011;25563;50.844;4.308;2023-11-21T01:08:44;73.78;;;33.45;;
39888;SDS011;25563;50.844;4.308;2023-11-21T01:11:11;79.82;;;34.22;;
39888;SDS011;25563;50.844;4.308;2023-11-21T01:13:40;73.88;;;32.58;;
39888;SDS011;25563;50.844;4.308;2023-11-21T01:16:07;73.05;;;31.33;;
39888;SDS011;25563;50.844;4.308;2023-11-21T01:18:34;76.70;;;32.75;;
39888;SDS011;25563;50.844;4.308;2023-11-21T01:21:00;73.75;;;33.08;;
39888;SDS011;25563;50.844;4.308;2023-11-21T01:23:26;67.10;;;32.40;;
39888;SDS011;25563;50.844;4.308;2023-11-21T01:25:52;75.15;;;34.40;;
39888;SDS011;25563;50.844;4.308;2023-11-21T01:28:21;75.07;;;35.13;;
39888;SDS011;25563;50.844;4.308;2023-11-21T01:30:47;68.38;;;31.63;;
39888;SDS011;25563;50.844;4.308;2023-11-21T01:33:13;69.97;;;33.17;;
39888;SDS011;25563;50.844;4.308;2023-11-21T01:35:40;64.00;;;30.45;;
39888;SDS011;25563;50.844;4.308;2023-11-21T01:38:07;71.60;;;30.88;;
39888;SDS011;25563;50.844;4.308;2023-11-21T01:40:33;67.68;;;31.65;;
39888;SDS011;25563;50.844;4.308;2023-11-21T01:42:59;65.65;;;31.50;;
39888;SDS011;25563;50.844;4.308;2023-11-21T01:45:28;60.67;;;29.92;;
39888;SDS011;25563;50.844;4.308;2023-11-21T01:47:58;66.78;;;30.02;;
39888;SDS011;25563;50.844;4.308;2023-11-21T01:50:26;59.10;;;30.45;;
39888;SDS011;25563;50.844;4.308;2023-11-21T01:52:52;65.43;;;31.55;;
39888;SDS011;25563;50.844;4.308;2023-11-21T01:55:18;55.78;;;28.48;;
39888;SDS011;25563;50.844;4.308;2023-11-21T01:57:45;65.32;;;28.60;;
39888;SDS011;25563;50.844;4.308;2023-11-21T02:00:12;60.30;;;29.45;;
39888;SDS011;25563;50.844;4.308;2023-11-21T02:02:44;58.60;;;28.73;;
39888;SDS011;25563;50.844;4.308;2023-11-21T02:05:11;61.30;;;28.57;;
39888;SDS011;25563;50.844;4.308;2023-11-21T02:07:38;66.15;;;30.02;;
39888;SDS011;25563;50.844;4.308;2023-11-21T02:10:05;65.40;;;29.30;;
39888;SDS011;25563;50.844;4.308;2023-11-21T02:12:32;64.47;;;30.55;;
39888;SDS011;25563;50.844;4.308;2023-11-21T02:14:58;59.60;;;28.90;;
39888;SDS011;25563;50.844;4.308;2023-11-21T02:17:24;58.35;;;29.98;;
39888;SDS011;25563;50.844;4.308;2023-11-21T02:19:52;58.42;;;26.85;;
39888;SDS011;25563;50.844;4.308;2023-11-21T02:22:18;56.25;;;27.45;;
39888;SDS011;25563;50.844;4.308;2023-11-21T02:24:45;51.42;;;26.38;;
39888;SDS011;25563;50.844;4.308;2023-11-21T02:27:12;51.85;;;27.08;;
39888;SDS011;25563;50.844;4.308;2023-11-21T02:29:38;53.83;;;27.90;;
39888;SDS011;25563;50.844;4.308;2023-11-21T02:32:04;53.85;;;27.25;;
39888;SDS011;25563;50.844;4.308;2023-11-21T02:34:30;54.25;;;27.15;;
39888;SDS011;25563;50.844;4.308;2023-11-21T02:36:56;53.42;;;27.38;;
39888;SDS011;25563;50.844;4.308;2023-11-21T02:39:22;51.58;;;27.20;;
39888;SDS011;25563;50.844;4.308;2023-11-21T02:41:50;49.90;;;27.50;;
39888;SDS011;25563;50.844;4.308;2023-11-21T02:44:16;47.58;;;26.55;;
39888;SDS011;25563;50.844;4.308;2023-11-21T02:46:43;59.08;;;27.13;;
39888;SDS011;25563;50.844;4.308;2023-11-21T02:49:08;45.88;;;25.85;;
39888;SDS011;25563;50.844;4.308;2023-11-21T02:51:35;52.00;;;27.85;;
39888;SDS011;25563;50.844;4.308;2023-11-21T02:54:03;53.60;;;29.25;;
39888;SDS011;25563;50.844;4.308;2023-11-21T02:56:31;54.83;;;28.13;;
39888;SDS011;25563;50.844;4.308;2023-11-21T02:58:58;47.20;;;26.27;;
39888;SDS011;25563;50.844;4.308;2023-11-21T03:01:25;57.35;;;26.15;;
39888;SDS011;25563;50.844;4.308;2023-11-21T03:03:53;53.28;;;25.48;;
39888;SDS011;25563;50.844;4.308;2023-11-21T03:06:20;50.47;;;26.02;;
39888;SDS011;25563;50.844;4.308;2023-11-21T03:08:47;53.30;;;26.38;;
39888;SDS011;25563;50.844;4.308;2023-11-21T03:11:13;49.13;;;26.60;;
39888;SDS011;25563;50.844;4.308;2023-11-21T03:13:39;44.50;;;26.38;;
39888;SDS011;25563;50.844;4.308;2023-11-21T03:16:08;46.22;;;25.60;;
39888;SDS011;25563;50.844;4.308;2023-11-21T03:18:35;49.00;;;25.42;;
39888;SDS011;25563;50.844;4.308;2023-11-21T03:21:05;51.58;;;26.80;;
39888;SDS011;25563;50.844;4.308;2023-11-21T03:23:31;49.78;;;27.02;;
39888;SDS011;25563;50.844;4.308;2023-11-21T03:25:57;51.97;;;27.42;;
39888;SDS011;25563;50.844;4.308;2023-11-21T03:28:24;53.13;;;26.92;;
39888;SDS011;25563;50.844;4.308;2023-11-21T03:30:51;54.35;;;26.70;;
39888;SDS011;25563;50.844;4.308;2023-11-21T03:33:17;54.22;;;27.80;;
39888;SDS011;25563;50.844;4.308;2023-11-21T03:35:43;52.50;;;26.70;;
39888;SDS011;25563;50.844;4.308;2023-11-21T03:38:10;51.22;;;26.42;;
39888;SDS011;25563;50.844;4.308;2023-11-21T03:40:36;61.95;;;28.48;;
39888;SDS011;25563;50.844;4.308;2023-11-21T03:43:02;58.67;;;28.63;;
39888;SDS011;25563;50.844;4.308;2023-11-21T03:45:28;55.78;;;28.13;;
39888;SDS011;25563;50.844;4.308;2023-11-21T03:47:54;60.28;;;27.98;;
39888;SDS011;25563;50.844;4.308;2023-11-21T03:50:20;52.83;;;28.75;;
39888;SDS011;25563;50.844;4.308;2023-11-21T03:52:46;50.67;;;26.70;;
39888;SDS011;25563;50.844;4.308;2023-11-21T03:55:12;56.28;;;27.85;;
39888;SDS011;25563;50.844;4.308;2023-11-21T03:57:38;47.58;;;27.70;;
39888;SDS011;25563;50.844;4.308;2023-11-21T04:00:04;55.55;;;28.13;;
39888;SDS011;25563;50.844;4.308;2023-11-21T04:02:33;55.25;;;30.13;;
39888;SDS011;25563;50.844;4.308;2023-11-21T04:05:00;54.53;;;29.40;;
39888;SDS011;25563;50.844;4.308;2023-11-21T04:07:27;53.58;;;28.20;;
39888;SDS011;25563;50.844;4.308;2023-11-21T04:09:52;51.83;;;28.65;;
39888;SDS011;25563;50.844;4.308;2023-11-21T04:12:19;55.47;;;28.63;;
39888;SDS011;25563;50.844;4.308;2023-11-21T04:14:44;55.38;;;31.08;;
39888;SDS011;25563;50.844;4.308;2023-11-21T04:17:10;59.85;;;31.15;;
39888;SDS011;25563;50.844;4.308;2023-11-21T04:19:37;52.83;;;30.38;;
39888;SDS011;25563;50.844;4.308;2023-11-21T04:22:03;53.30;;;29.48;;
39888;SDS011;25563;50.844;4.308;2023-11-21T04:24:29;66.82;;;31.83;;
39888;SDS011;25563;50.844;4.308;2023-11-21T04:26:55;59.80;;;31.60;;
39888;SDS011;25563;50.844;4.308;2023-11-21T04:29:21;60.72;;;31.00;;
39888;SDS011;25563;50.844;4.308;2023-11-21T04:31:47;59.25;;;30.60;;
39888;SDS011;25563;50.844;4.308;2023-11-21T04:34:14;56.40;;;29.17;;
39888;SDS011;25563;50.844;4.308;2023-11-21T04:36:40;65.53;;;30.80;;
39888;SDS011;25563;50.844;4.308;2023-11-21T04:39:06;59.97;;;32.70;;
39888;SDS011;25563;50.844;4.308;2023-11-21T04:41:32;71.15;;;33.03;;
39888;SDS011;25563;50.844;4.308;2023-11-21T04:43:58;51.97;;;30.42;;
39888;SDS011;25563;50.844;4.308;2023-11-21T04:46:26;60.75;;;31.58;;
39888;SDS011;25563;50.844;4.308;2023-11-21T04:48:53;69.55;;;32.58;;
39888;SDS011;25563;50.844;4.308;2023-11-21T04:51:19;57.47;;;31.58;;
39888;SDS011;25563;50.844;4.308;2023-11-21T04:53:45;66.88;;;31.77;;
39888;SDS011;25563;50.844;4.308;2023-11-21T04:56:10;64.18;;;33.42;;
39888;SDS011;25563;50.844;4.308;2023-11-21T04:58:37;65.32;;;30.60;;
39888;SDS011;25563;50.844;4.308;2023-11-21T05:01:05;61.20;;;30.80;;
39888;SDS011;25563;50.844;4.308;2023-11-21T05:03:33;56.58;;;32.47;;
39888;SDS011;25563;50.844;4.308;2023-11-21T05:05:59;60.63;;;30.92;;
39888;SDS011;25563;50.844;4.308;2023-11-21T05:08:25;53.28;;;29.83;;
39888;SDS011;25563;50.844;4.308;2023-11-21T05:10:51;54.20;;;30.25;;
39888;SDS011;25563;50.844;4.308;2023-11-21T05:13:18;57.90;;;31.58;;
39888;SDS011;25563;50.844;4.308;2023-11-21T05:15:45;55.83;;;29.95;;
39888;SDS011;25563;50.844;4.308;2023-11-21T05:18:11;59.55;;;31.02;;
39888;SDS011;25563;50.844;4.308;2023-11-21T05:20:38;59.85;;;31.95;;
39888;SDS011;25563;50.844;4.308;2023-11-21T05:23:06;55.28;;;31.05;;
39888;SDS011;25563;50.844;4.308;2023-11-21T05:25:33;53.70;;;30.48;;
39888;SDS011;25563;50.844;4.308;2023-11-21T05:28:00;56.08;;;29.55;;
39888;SDS011;25563;50.844;4.308;2023-11-21T05:30:28;59.15;;;29.27;;
39888;SDS011;25563;50.844;4.308;2023-11-21T05:32:54;62.40;;;32.97;;
39888;SDS011;25563;50.844;4.308;2023-11-21T05:35:20;57.90;;;30.42;;
39888;SDS011;25563;50.844;4.308;2023-11-21T05:37:46;60.42;;;32.15;;
39888;SDS011;25563;50.844;4.308;2023-11-21T05:40:13;60.63;;;32.45;;
39888;SDS011;25563;50.844;4.308;2023-11-21T05:42:39;60.08;;;30.83;;
39888;SDS011;25563;50.844;4.308;2023-11-21T05:45:06;60.42;;;31.85;;
39888;SDS011;25563;50.844;4.308;2023-11-21T05:47:39;57.78;;;31.73;;
39888;SDS011;25563;50.844;4.308;2023-11-21T05:50:07;68.07;;;32.13;;
39888;SDS011;25563;50.844;4.308;2023-11-21T05:52:36;57.72;;;32.38;;
39888;SDS011;25563;50.844;4.308;2023-11-21T05:55:02;54.65;;;29.80;;
39888;SDS011;25563;50.844;4.308;2023-11-21T05:57:35;50.53;;;27.92;;
39888;SDS011;25563;50.844;4.308;2023-11-21T06:00:03;56.50;;;29.10;;
39888;SDS011;25563;50.844;4.308;2023-11-21T06:02:48;56.35;;;30.25;;
39888;SDS011;25563;50.844;4.308;2023-11-21T06:05:20;47.00;;;28.60;;
39888;SDS011;25563;50.844;4.308;2023-11-21T06:07:48;62.40;;;29.92;;
39888;SDS011;25563;50.844;4.308;2023-11-21T06:10:15;58.67;;;31.50;;
39888;SDS011;25563;50.844;4.308;2023-11-21T06:12:43;61.17;;;30.15;;
39888;SDS011;25563;50.844;4.308;2023-11-21T06:15:09;45.60;;;28.17;;
39888;SDS011;25563;50.844;4.308;2023-11-21T06:17:38;49.20;;;29.92;;
39888;SDS011;25563;50.844;4.308;2023-11-21T06:20:06;51.05;;;29.75;;
39888;SDS011;25563;50.844;4.308;2023-11-21T06:22:39;54.10;;;27.40;;
39888;SDS011;25563;50.844;4.308;2023-11-21T06:25:06;55.85;;;30.15;;
39888;SDS011;25563;50.844;4.308;2023-11-21T06:27:34;48.33;;;27.33;;
39888;SDS011;25563;50.844;4.308;2023-11-21T06:30:02;46.10;;;28.00;;
39888;SDS011;25563;50.844;4.308;2023-11-21T06:32:29;61.90;;;29.67;;
39888;SDS011;25563;50.844;4.308;2023-11-21T06:34:56;54.65;;;30.52;;
39888;SDS011;25563;50.844;4.308;2023-11-21T06:37:25;50.73;;;27.90;;
39888;SDS011;25563;50.844;4.308;2023-11-21T06:39:52;50.83;;;28.80;;
39888;SDS011;25563;50.844;4.308;2023-11-21T06:42:18;49.03;;;30.00;;
39888;SDS011;25563;50.844;4.308;2023-11-21T06:44:44;55.75;;;31.98;;
39888;SDS011;25563;50.844;4.308;2023-11-21T06:47:12;60.67;;;29.20;;
39888;SDS011;25563;50.844;4.308;2023-11-21T06:49:42;54.13;;;30.13;;
39888;SDS011;25563;50.844;4.308;2023-11-21T06:52:08;58.00;;;30.00;;
39888;SDS011;25563;50.844;4.308;2023-11-21T06:54:34;55.88;;;28.65;;
39888;SDS011;25563;50.844;4.308;2023-11-21T06:57:01;49.10;;;27.98;;
39888;SDS011;25563;50.844;4.308;2023-11-21T06:59:28;53.65;;;31.13;;
39888;SDS011;25563;50.844;4.308;2023-11-21T07:01:54;53.78;;;31.40;;
39888;SDS011;25563;50.844;4.308;2023-11-21T07:04:21;51.05;;;29.75;;
39888;SDS011;25563;50.844;4.308;2023-11-21T07:06:48;53.75;;;30.02;;
39888;SDS011;25563;50.844;4.308;2023-11-21T07:09:15;49.38;;;28.80;;
39888;SDS011;25563;50.844;4.308;2023-11-21T07:11:44;55.67;;;31.08;;
39888;SDS011;25563;50.844;4.308;2023-11-21T07:14:10;63.55;;;31.45;;
39888;SDS011;25563;50.844;4.308;2023-11-21T07:16:37;56.60;;;30.90;;
39888;SDS011;25563;50.844;4.308;2023-11-21T07:19:03;59.10;;;29.45;;
39888;SDS011;25563;50.844;4.308;2023-11-21T07:21:33;67.45;;;32.13;;
39888;SDS011;25563;50.844;4.308;2023-11-21T07:24:01;62.17;;;29.85;;
39888;SDS011;25563;50.844;4.308;2023-11-21T07:26:27;68.78;;;31.90;;
39888;SDS011;25563;50.844;4.308;2023-11-21T07:28:54;70.78;;;32.55;;
39888;SDS011;25563;50.844;4.308;2023-11-21T07:31:22;59.42;;;31.52;;
39888;SDS011;25563;50.844;4.308;2023-11-21T07:33:49;62.97;;;31.65;;
39888;SDS011;25563;50.844;4.308;2023-11-21T07:36:16;68.95;;;32.20;;
39888;SDS011;25563;50.844;4.308;2023-11-21T07:38:48;72.32;;;31.48;;
39888;SDS011;25563;50.844;4.308;2023-11-21T07:41:15;83.35;;;31.27;;
39888;SDS011;25563;50.844;4.308;2023-11-21T07:43:41;75.13;;;30.17;;
39888;SDS011;25563;50.844;4.308;2023-11-21T07:46:07;68.63;;;30.90;;
39888;SDS011;25563;50.844;4.308;2023-11-21T07:48:34;63.30;;;31.17;;
39888;SDS011;25563;50.844;4.308;2023-11-21T07:51:00;73.20;;;31.77;;
39888;SDS011;25563;50.844;4.308;2023-11-21T07:53:31;69.30;;;33.67;;
39888;SDS011;25563;50.844;4.308;2023-11-21T07:55:58;69.82;;;31.83;;
39888;SDS011;25563;50.844;4.308;2023-11-21T07:58:27;62.28;;;30.27;;
39888;SDS011;25563;50.844;4.308;2023-11-21T08:00:53;64.53;;;32.22;;
39888;SDS011;25563;50.844;4.308;2023-11-21T08:03:19;75.97;;;30.83;;
39888;SDS011;25563;50.844;4.308;2023-11-21T08:05:46;72.50;;;32.92;;
39888;SDS011;25563;50.844;4.308;2023-11-21T08:08:12;70.57;;;31.55;;
39888;SDS011;25563;50.844;4.308;2023-11-21T08:10:37;79.30;;;31.35;;
39888;SDS011;25563;50.844;4.308;2023-11-21T08:13:04;84.63;;;32.63;;
39888;SDS011;25563;50.844;4.308;2023-11-21T08:15:30;66.72;;;31.83;;
39888;SDS011;25563;50.844;4.308;2023-11-21T08:18:00;60.05;;;30.15;;
39888;SDS011;25563;50.844;4.308;2023-11-21T08:20:26;66.97;;;31.88;;
39888;SDS011;25563;50.844;4.308;2023-11-21T08:22:53;69.60;;;31.20;;
39888;SDS011;25563;50.844;4.308;2023-11-21T08:25:20;65.53;;;30.05;;
39888;SDS011;25563;50.844;4.308;2023-11-21T08:27:46;67.13;;;33.20;;
39888;SDS011;25563;50.844;4.308;2023-11-21T08:30:12;65.03;;;32.05;;
39888;SDS011;25563;50.844;4.308;2023-11-21T08:32:42;59.47;;;30.52;;
39888;SDS011;25563;50.844;4.308;2023-11-21T08:35:08;70.72;;;30.33;;
39888;SDS011;25563;50.844;4.308;2023-11-21T08:37:36;66.50;;;32.53;;
39888;SDS011;25563;50.844;4.308;2023-11-21T08:40:04;77.78;;;32.25;;
39888;SDS011;25563;50.844;4.308;2023-11-21T08:42:37;76.40;;;31.77;;
39888;SDS011;25563;50.844;4.308;2023-11-21T08:45:03;72.40;;;32.95;;
39888;SDS011;25563;50.844;4.308;2023-11-21T08:47:34;62.83;;;31.13;;
39888;SDS011;25563;50.844;4.308;2023-11-21T08:50:01;63.28;;;31.58;;
39888;SDS011;25563;50.844;4.308;2023-11-21T08:52:28;61.40;;;30.95;;
39888;SDS011;25563;50.844;4.308;2023-11-21T08:54:53;72.88;;;30.17;;
39888;SDS011;25563;50.844;4.308;2023-11-21T08:57:22;68.72;;;31.55;;
39888;SDS011;25563;50.844;4.308;2023-11-21T08:59:49;71.93;;;31.95;;
39888;SDS011;25563;50.844;4.308;2023-11-21T09:02:21;67.43;;;31.17;;
39888;SDS011;25563;50.844;4.308;2023-11-21T09:04:49;74.72;;;34.15;;
39888;SDS011;25563;50.844;4.308;2023-11-21T09:07:17;79.55;;;33.35;;
39888;SDS011;25563;50.844;4.308;2023-11-21T09:09:49;88.50;;;33.90;;
39888;SDS011;25563;50.844;4.308;2023-11-21T09:14:42;72.47;;;31.95;;
39888;SDS011;25563;50.844;4.308;2023-11-21T09:17:12;69.53;;;31.05;;
39888;SDS011;25563;50.844;4.308;2023-11-21T09:19:38;74.88;;;32.35;;
39888;SDS011;25563;50.844;4.308;2023-11-21T09:22:04;77.43;;;32.92;;
39888;SDS011;25563;50.844;4.308;2023-11-21T09:24:31;73.40;;;32.42;;
39888;SDS011;25563;50.844;4.308;2023-11-21T09:26:57;76.13;;;32.85;;
39888;SDS011;25563;50.844;4.308;2023-11-21T09:29:26;70.18;;;31.63;;
39888;SDS011;25563;50.844;4.308;2023-11-21T09:31:52;72.68;;;32.72;;
39888;SDS011;25563;50.844;4.308;2023-11-21T09:34:19;66.60;;;30.33;;
39888;SDS011;25563;50.844;4.308;2023-11-21T09:36:46;63.08;;;28.77;;
39888;SDS011;25563;50.844;4.308;2023-11-21T09:39:14;77.63;;;30.63;;
39888;SDS011;25563;50.844;4.308;2023-11-21T09:44:13;52.75;;;28.58;;
39888;SDS011;25563;50.844;4.308;2023-11-21T09:46:42;61.00;;;27.88;;
39888;SDS011;25563;50.844;4.308;2023-11-21T09:49:09;52.85;;;27.45;;
39888;SDS011;25563;50.844;4.308;2023-11-21T09:51:39;60.53;;;28.35;;
39888;SDS011;25563;50.844;4.308;2023-11-21T09:54:07;53.45;;;28.50;;
39888;SDS011;25563;50.844;4.308;2023-11-21T09:56:37;52.38;;;26.67;;
39888;SDS011;25563;50.844;4.308;2023-11-21T09:59:03;51.22;;;27.10;;
39888;SDS011;25563;50.844;4.308;2023-11-21T10:04:02;48.83;;;25.50;;
39888;SDS011;25563;50.844;4.308;2023-11-21T10:06:29;48.35;;;24.98;;
39888;SDS011;25563;50.844;4.308;2023-11-21T10:08:57;33.95;;;22.23;;
39888;SDS011;25563;50.844;4.308;2023-11-21T10:11:25;40.10;;;23.23;;
39888;SDS011;25563;50.844;4.308;2023-11-21T10:13:55;39.42;;;22.85;;
39888;SDS011;25563;50.844;4.308;2023-11-21T10:16:24;39.28;;;23.17;;
39888;SDS011;25563;50.844;4.308;2023-11-21T10:18:52;34.75;;;22.63;;
39888;SDS011;25563;50.844;4.308;2023-11-21T10:21:20;41.60;;;23.88;;
39888;SDS011;25563;50.844;4.308;2023-11-21T10:23:46;41.58;;;25.92;;
39888;SDS011;25563;50.844;4.308;2023-11-21T10:26:12;41.15;;;26.92;;
39888;SDS011;25563;50.844;4.308;2023-11-21T10:29:00;39.73;;;27.03;;
39888;SDS011;25563;50.844;4.308;2023-11-21T10:31:30;39.45;;;24.13;;
39888;SDS011;25563;50.844;4.308;2023-11-21T10:34:18;39.28;;;23.40;;
39888;SDS011;25563;50.844;4.308;2023-11-21T10:36:45;34.10;;;23.63;;
39888;SDS011;25563;50.844;4.308;2023-11-21T10:39:16;34.67;;;22.98;;
39888;SDS011;25563;50.844;4.308;2023-11-21T10:41:46;32.03;;;21.80;;
39888;SDS011;25563;50.844;4.308;2023-11-21T10:46:48;32.78;;;23.90;;
39888;SDS011;25563;50.844;4.308;2023-11-21T10:49:21;36.30;;;24.67;;
39888;SDS011;25563;50.844;4.308;2023-11-21T10:51:50;35.47;;;25.73;;
39888;SDS011;25563;50.844;4.308;2023-11-21T10:54:20;40.95;;;29.40;;
39888;SDS011;25563;50.844;4.308;2023-11-21T10:56:48;46.92;;;30.42;;
39888;SDS011;25563;50.844;4.308;2023-11-21T10:59:19;46.03;;;30.30;;
39888;SDS011;25563;50.844;4.308;2023-11-21T11:01:47;46.67;;;30.38;;
39888;SDS011;25563;50.844;4.308;2023-11-21T11:04:15;48.33;;;30.75;;
39888;SDS011;25563;50.844;4.308;2023-11-21T11:06:44;42.47;;;28.50;;
39888;SDS011;25563;50.844;4.308;2023-11-21T11:09:20;39.20;;;28.80;;
39888;SDS011;25563;50.844;4.308;2023-11-21T11:11:46;37.45;;;27.17;;
39888;SDS011;25563;50.844;4.308;2023-11-21T11:14:13;35.70;;;26.83;;
39888;SDS011;25563;50.844;4.308;2023-11-21T11:16:39;46.15;;;27.40;;
39888;SDS011;25563;50.844;4.308;2023-11-21T11:19:07;37.60;;;26.48;;
39888;SDS011;25563;50.844;4.308;2023-11-21T11:38:32;34.33;;;26.42;;
39888;SDS011;25563;50.844;4.308;2023-11-21T11:41:01;33.58;;;26.20;;
39888;SDS011;25563;50.844;4.308;2023-11-21T11:43:31;27.55;;;24.67;;
39888;SDS011;25563;50.844;4.308;2023-11-21T11:46:09;24.15;;;21.45;;
39888;SDS011;25563;50.844;4.308;2023-11-21T11:48:38;28.85;;;21.08;;
39888;SDS011;25563;50.844;4.308;2023-11-21T11:53:49;21.33;;;19.25;;
39888;SDS011;25563;50.844;4.308;2023-11-21T11:59:02;20.13;;;17.52;;
39888;SDS011;25563;50.844;4.308;2023-11-21T12:01:31;21.15;;;16.45;;
39888;SDS011;25563;50.844;4.308;2023-11-21T12:06:39;18.10;;;13.52;;
39888;SDS011;25563;50.844;4.308;2023-11-21T12:09:06;14.07;;;12.68;;
39888;SDS011;25563;50.844;4.308;2023-11-21T12:11:32;13.27;;;11.90;;
39888;SDS011;25563;50.844;4.308;2023-11-21T12:14:00;21.58;;;13.02;;
39888;SDS011;25563;50.844;4.308;2023-11-21T12:16:28;15.43;;;11.55;;
39888;SDS011;25563;50.844;4.308;2023-11-21T12:18:53;12.32;;;11.20;;
39888;SDS011;25563;50.844;4.308;2023-11-21T12:21:22;13.60;;;11.65;;
39888;SDS011;25563;50.844;4.308;2023-11-21T12:23:48;12.27;;;10.40;;
39888;SDS011;25563;50.844;4.308;2023-11-21T12:26:15;13.60;;;10.48;;
39888;SDS011;25563;50.844;4.308;2023-11-21T12:28:41;10.18;;;9.20;;
39888;SDS011;25563;50.844;4.308;2023-11-21T12:31:08;11.20;;;9.15;;
39888;SDS011;25563;50.844;4.308;2023-11-21T12:33:34;12.18;;;10.52;;
39888;SDS011;25563;50.844;4.308;2023-11-21T12:36:00;13.90;;;9.63;;
39888;SDS011;25563;50.844;4.308;2023-11-21T12:38:33;16.20;;;9.68;;
39888;SDS011;25563;50.844;4.308;2023-11-21T12:41:01;19.77;;;9.93;;
39888;SDS011;25563;50.844;4.308;2023-11-21T12:43:26;12.02;;;8.00;;
39888;SDS011;25563;50.844;4.308;2023-11-21T12:46:06;13.05;;;8.80;;
39888;SDS011;25563;50.844;4.308;2023-11-21T12:48:39;13.88;;;8.63;;
39888;SDS011;25563;50.844;4.308;2023-11-21T12:51:09;11.15;;;8.32;;
39888;SDS011;25563;50.844;4.308;2023-11-21T12:53:37;12.77;;;8.43;;
39888;SDS011;25563;50.844;4.308;2023-11-21T12:56:10;11.95;;;8.85;;
39888;SDS011;25563;50.844;4.308;2023-11-21T12:58:38;15.73;;;9.35;;
39888;SDS011;25563;50.844;4.308;2023-11-21T13:01:05;10.90;;;8.50;;
39888;SDS011;25563;50.844;4.308;2023-11-21T13:03:37;9.73;;;8.77;;
39888;SDS011;25563;50.844;4.308;2023-11-21T13:06:04;15.68;;;9.93;;
39888;SDS011;25563;50.844;4.308;2023-11-21T13:08:30;16.00;;;10.68;;
39888;SDS011;25563;50.844;4.308;2023-11-21T13:10:57;14.82;;;10.07;;
39888;SDS011;25563;50.844;4.308;2023-11-21T13:13:29;16.65;;;10.57;;
39888;SDS011;25563;50.844;4.308;2023-11-21T13:15:57;23.45;;;10.90;;
39888;SDS011;25563;50.844;4.308;2023-11-21T13:18:29;13.27;;;10.05;;
39888;SDS011;25563;50.844;4.308;2023-11-21T13:21:00;11.82;;;10.00;;
39888;SDS011;25563;50.844;4.308;2023-11-21T13:23:34;18.27;;;9.75;;
39888;SDS011;25563;50.844;4.308;2023-11-21T13:26:03;10.70;;;9.52;;
39888;SDS011;25563;50.844;4.308;2023-11-21T13:28:32;13.02;;;11.88;;
39888;SDS011;25563;50.844;4.308;2023-11-21T13:30:59;14.75;;;13.10;;
39888;SDS011;25563;50.844;4.308;2023-11-21T13:33:34;16.73;;;13.32;;
39888;SDS011;25563;50.844;4.308;2023-11-21T13:36:06;12.68;;;11.45;;
39888;SDS011;25563;50.844;4.308;2023-11-21T13:38:34;12.07;;;11.05;;
39888;SDS011;25563;50.844;4.308;2023-11-21T13:41:02;15.00;;;11.30;;
39888;SDS011;25563;50.844;4.308;2023-11-21T13:43:32;20.95;;;12.18;;
39888;SDS011;25563;50.844;4.308;2023-11-21T13:45:58;14.20;;;10.93;;
39888;SDS011;25563;50.844;4.308;2023-11-21T13:48:35;14.50;;;11.27;;
39888;SDS011;25563;50.844;4.308;2023-11-21T13:51:15;12.93;;;11.77;;
39888;SDS011;25563;50.844;4.308;2023-11-21T13:53:45;13.52;;;12.23;;
39888;SDS011;25563;50.844;4.308;2023-11-21T13:56:17;12.65;;;11.48;;
39888;SDS011;25563;50.844;4.308;2023-11-21T13:58:56;13.20;;;12.10;;
39888;SDS011;25563;50.844;4.308;2023-11-21T14:01:24;11.10;;;10.25;;
39888;SDS011;25563;50.844;4.308;2023-11-21T14:04:13;12.25;;;8.80;;
39888;SDS011;25563;50.844;4.308;2023-11-21T14:06:43;9.20;;;8.30;;
39888;SDS011;25563;50.844;4.308;2023-11-21T14:09:16;9.40;;;8.63;;
39888;SDS011;25563;50.844;4.308;2023-11-21T14:11:54;11.70;;;10.73;;
39888;SDS011;25563;50.844;4.308;2023-11-21T14:14:22;10.30;;;9.50;;
39888;SDS011;25563;50.844;4.308;2023-11-21T14:16:50;10.55;;;9.65;;
39888;SDS011;25563;50.844;4.308;2023-11-21T14:19:16;10.90;;;10.10;;
39888;SDS011;25563;50.844;4.308;2023-11-21T14:21:43;10.70;;;9.80;;
39888;SDS011;25563;50.844;4.308;2023-11-21T14:24:10;9.25;;;8.50;;
39888;SDS011;25563;50.844;4.308;2023-11-21T14:26:38;10.35;;;9.55;;
39888;SDS011;25563;50.844;4.308;2023-11-21T14:29:08;8.65;;;7.80;;
39888;SDS011;25563;50.844;4.308;2023-11-21T14:34:03;7.97;;;7.47;;
39888;SDS011;25563;50.844;4.308;2023-11-21T14:36:31;8.35;;;7.68;;
39888;SDS011;25563;50.844;4.308;2023-11-21T14:38:58;9.32;;;8.55;;
39888;SDS011;25563;50.844;4.308;2023-11-21T14:41:24;11.63;;;10.73;;
39888;SDS011;25563;50.844;4.308;2023-11-21T14:43:50;8.27;;;7.68;;
39888;SDS011;25563;50.844;4.308;2023-11-21T14:46:17;6.88;;;6.28;;
39888;SDS011;25563;50.844;4.308;2023-11-21T14:48:44;6.70;;;6.00;;
39888;SDS011;25563;50.844;4.308;2023-11-21T14:51:27;6.70;;;6.07;;
39888;SDS011;25563;50.844;4.308;2023-11-21T14:53:57;6.57;;;5.90;;
39888;SDS011;25563;50.844;4.308;2023-11-21T14:59:12;7.47;;;6.57;;
39888;SDS011;25563;50.844;4.308;2023-11-21T15:01:41;7.00;;;6.45;;
39888;SDS011;25563;50.844;4.308;2023-11-21T15:04:20;6.78;;;6.25;;
39888;SDS011;25563;50.844;4.308;2023-11-21T15:07:01;6.85;;;6.20;;